createdAt,value
2017-09-09T00:02:08.131Z,93401.86
2017-09-09T00:04:36.453Z,93396.46
2017-09-09T00:07:04.794Z,93391.84
2017-09-09T00:09:33.131Z,93391.34
2017-09-09T00:12:01.464Z,93386.97
2017-09-09T00:14:29.805Z,93380.69
2017-09-09T00:16:58.280Z,93374.78
2017-09-09T00:19:26.619Z,93358.95
2017-09-09T00:21:54.958Z,93369.61
2017-09-09T00:24:23.303Z,93363.77
2017-09-09T00:26:51.708Z,93355.83
2017-09-09T00:29:20.148Z,93345.02
2017-09-09T00:31:48.487Z,93344.33
2017-09-09T00:34:17.002Z,93340.80
2017-09-09T00:36:45.355Z,93336.05
2017-09-09T00:39:13.695Z,93338.40
2017-09-09T00:41:42.036Z,93333.09
2017-09-09T00:44:10.380Z,93334.97
2017-09-09T00:46:38.769Z,93332.83
2017-09-09T00:49:07.103Z,93325.81
2017-09-09T00:51:35.478Z,93332.86
2017-09-09T00:54:03.808Z,93331.78
2017-09-09T00:56:32.163Z,93335.09
2017-09-09T00:59:00.504Z,93332.57
2017-09-09T01:01:28.842Z,93327.19
2017-09-09T01:03:57.184Z,93340.69
2017-09-09T01:06:25.522Z,93331.25
2017-09-09T01:08:53.859Z,93328.09
2017-09-09T01:11:22.198Z,93323.06
2017-09-09T01:13:50.602Z,93317.36
2017-09-09T01:16:18.934Z,93321.97
2017-09-09T01:18:47.305Z,93319.73
2017-09-09T01:21:15.651Z,93315.13
2017-09-09T01:23:43.996Z,93311.39
2017-09-09T01:26:12.331Z,93308.00
2017-09-09T01:28:40.714Z,93307.63
2017-09-09T01:31:09.063Z,93312.38
2017-09-09T01:33:37.407Z,93312.08
2017-09-09T01:36:05.778Z,93309.66
2017-09-09T01:38:34.133Z,93298.28
2017-09-09T01:41:02.491Z,93298.66
2017-09-09T01:43:30.842Z,93298.06
2017-09-09T01:45:59.179Z,93295.77
2017-09-09T01:48:27.519Z,93297.06
2017-09-09T01:50:55.869Z,93297.24
2017-09-09T01:53:24.257Z,93289.28
2017-09-09T01:55:52.599Z,93282.09
2017-09-09T01:58:20.939Z,93282.59
2017-09-09T02:00:49.309Z,93280.00
2017-09-09T02:03:17.646Z,93277.86
2017-09-09T02:05:45.992Z,93268.60
2017-09-09T02:08:14.352Z,93266.88
2017-09-09T02:10:42.698Z,93259.39
2017-09-09T02:13:11.741Z,93254.91
2017-09-09T02:15:40.075Z,93260.44
2017-09-09T02:18:08.410Z,93250.97
2017-09-09T02:20:36.886Z,93252.27
2017-09-09T02:23:05.224Z,93244.35
2017-09-09T02:25:33.565Z,93237.77
2017-09-09T02:28:01.905Z,93240.27
2017-09-09T02:30:30.314Z,93235.90
2017-09-09T02:32:58.657Z,93232.62
2017-09-09T02:35:27.010Z,93229.03
2017-09-09T02:37:55.348Z,93230.91
2017-09-09T02:40:23.697Z,93226.44
2017-09-09T02:42:52.076Z,93215.41
2017-09-09T02:45:20.439Z,93208.31
2017-09-09T02:47:48.821Z,93207.73
2017-09-09T02:50:17.163Z,93216.80
2017-09-09T02:52:45.513Z,93210.20
2017-09-09T02:55:13.876Z,93213.38
2017-09-09T02:57:42.223Z,93205.88
2017-09-09T03:00:10.624Z,93207.00
2017-09-09T03:02:38.963Z,93198.93
2017-09-09T03:05:07.731Z,93198.86
2017-09-09T03:07:36.073Z,93182.81
2017-09-09T03:10:04.419Z,93180.14
2017-09-09T03:12:32.907Z,93177.94
2017-09-09T03:15:01.251Z,93174.27
2017-09-09T03:17:29.592Z,93165.48
2017-09-09T03:19:57.927Z,93154.09
2017-09-09T03:22:26.269Z,93153.17
2017-09-09T03:24:54.612Z,93158.06
2017-09-09T03:27:22.963Z,93156.89
2017-09-09T03:29:51.343Z,93163.76
2017-09-09T03:32:19.704Z,93155.52
2017-09-09T03:34:48.047Z,93152.20
2017-09-09T03:37:16.414Z,93148.84
2017-09-09T03:39:44.755Z,93147.59
2017-09-09T03:42:13.124Z,93142.25
2017-09-09T03:44:41.470Z,93134.34
2017-09-09T03:47:09.818Z,93130.66
2017-09-09T03:49:38.182Z,93132.53
2017-09-09T03:52:06.528Z,93128.63
2017-09-09T03:54:34.880Z,93132.88
2017-09-09T03:57:03.216Z,93133.53
2017-09-09T03:59:31.556Z,93124.84
2017-09-09T04:01:59.903Z,93107.04
2017-09-09T04:04:28.253Z,93106.39
2017-09-09T04:06:56.587Z,93109.52
2017-09-09T04:09:24.928Z,93112.50
2017-09-09T04:11:53.278Z,93100.08
2017-09-09T04:14:21.610Z,93100.92
2017-09-09T04:16:49.954Z,93095.48
2017-09-09T04:19:18.303Z,93085.55
2017-09-09T04:21:46.679Z,93089.20
2017-09-09T04:24:15.015Z,93089.91
2017-09-09T04:26:43.385Z,93095.66
2017-09-09T04:29:11.732Z,93098.29
2017-09-09T04:31:40.079Z,93090.94
2017-09-09T04:34:08.418Z,93082.86
2017-09-09T04:36:36.759Z,93079.23
2017-09-09T04:39:05.105Z,93082.95
2017-09-09T04:41:33.448Z,93061.40
2017-09-09T04:44:01.911Z,93058.66
2017-09-09T04:46:30.257Z,93062.33
2017-09-09T04:48:58.595Z,93065.10
2017-09-09T04:51:26.947Z,93072.20
2017-09-09T04:53:55.287Z,93062.23
2017-09-09T04:56:23.635Z,93070.01
2017-09-09T04:58:51.976Z,93058.72
2017-09-09T05:01:20.355Z,93061.59
2017-09-09T05:03:48.703Z,93054.34
2017-09-09T05:06:17.053Z,93047.63
2017-09-09T05:08:45.451Z,93046.88
2017-09-09T05:11:13.809Z,93044.58
2017-09-09T05:13:42.310Z,93042.59
2017-09-09T05:16:10.645Z,93031.44
2017-09-09T05:18:38.982Z,93025.75
2017-09-09T05:21:07.326Z,93031.58
2017-09-09T05:23:35.708Z,93023.34
2017-09-09T05:26:04.048Z,93023.82
2017-09-09T05:28:32.392Z,93030.69
2017-09-09T05:31:00.723Z,93033.10
2017-09-09T05:33:29.075Z,93035.97
2017-09-09T05:35:57.446Z,93034.95
2017-09-09T05:38:25.779Z,93037.68
2017-09-09T05:40:54.127Z,93036.78
2017-09-09T05:43:22.467Z,93031.20
2017-09-09T05:45:50.832Z,93027.00
2017-09-09T05:48:19.170Z,93022.04
2017-09-09T05:50:47.511Z,93019.97
2017-09-09T05:53:15.891Z,93021.75
2017-09-09T05:55:44.256Z,93018.63
2017-09-09T05:58:12.595Z,93025.55
2017-09-09T06:00:40.931Z,93027.58
2017-09-09T06:03:09.562Z,93021.65
2017-09-09T06:05:37.922Z,93014.00
2017-09-09T06:08:06.279Z,93021.55
2017-09-09T06:10:34.615Z,93022.52
2017-09-09T06:13:03.307Z,93015.50
2017-09-09T06:15:31.692Z,93013.45
2017-09-09T06:18:00.033Z,93017.02
2017-09-09T06:20:28.384Z,93016.41
2017-09-09T06:22:56.725Z,93017.48
2017-09-09T06:25:25.067Z,93020.07
2017-09-09T06:27:53.416Z,93019.77
2017-09-09T06:30:21.763Z,93024.58
2017-09-09T06:32:50.108Z,93030.58
2017-09-09T06:35:18.451Z,93027.58
2017-09-09T06:37:46.798Z,93033.78
2017-09-09T06:40:15.200Z,93028.75
2017-09-09T06:42:43.534Z,93022.34
2017-09-09T06:45:11.872Z,93027.09
2017-09-09T06:47:40.209Z,93028.33
2017-09-09T06:50:08.550Z,93028.23
2017-09-09T06:52:36.891Z,93028.94
2017-09-09T06:55:05.235Z,93025.36
2017-09-09T06:57:33.562Z,93027.86
2017-09-09T07:00:01.938Z,93021.41
2017-09-09T07:02:30.279Z,93009.16
2017-09-09T07:04:58.642Z,93008.55
2017-09-09T07:07:26.980Z,93014.98
2017-09-09T07:09:55.353Z,93023.30
2017-09-09T07:12:23.699Z,93017.55
2017-09-09T07:14:52.041Z,93019.09
2017-09-09T07:17:20.376Z,93028.02
2017-09-09T07:19:48.724Z,93046.91
2017-09-09T07:22:17.084Z,93061.75
2017-09-09T07:24:45.480Z,93060.50
2017-09-09T07:27:13.810Z,93067.69
2017-09-09T07:29:42.155Z,93068.03
2017-09-09T07:32:10.494Z,93071.63
2017-09-09T07:34:38.830Z,93064.08
2017-09-09T07:37:07.173Z,93072.02
2017-09-09T07:39:35.503Z,93073.14
2017-09-09T07:42:04.358Z,93088.10
2017-09-09T07:44:32.759Z,93087.94
2017-09-09T07:47:01.101Z,93080.27
2017-09-09T07:49:29.444Z,93090.44
2017-09-09T07:51:57.790Z,93093.33
2017-09-09T07:54:26.131Z,93094.05
2017-09-09T07:56:54.503Z,93104.08
2017-09-09T07:59:26.683Z,93106.95
2017-09-09T08:01:55.029Z,93104.36
2017-09-09T08:04:23.366Z,93105.86
2017-09-09T08:06:51.725Z,93109.66
2017-09-09T08:09:20.090Z,93108.68
2017-09-09T08:11:48.434Z,93116.13
2017-09-09T08:14:16.774Z,93110.31
2017-09-09T08:16:45.162Z,93115.73
2017-09-09T08:19:14.058Z,93115.05
2017-09-09T08:21:42.448Z,93121.67
2017-09-09T08:24:10.795Z,93126.39
2017-09-09T08:26:39.159Z,93124.65
2017-09-09T08:29:07.519Z,93126.77
2017-09-09T08:31:35.895Z,93140.52
2017-09-09T08:34:04.251Z,93141.61
2017-09-09T08:36:32.594Z,93141.91
2017-09-09T08:39:00.951Z,93164.23
2017-09-09T08:41:29.320Z,93159.91
2017-09-09T08:43:57.658Z,93155.52
2017-09-09T08:46:25.996Z,93158.80
2017-09-09T08:48:54.363Z,93170.97
2017-09-09T08:51:22.727Z,93181.36
2017-09-09T08:53:51.072Z,93176.95
2017-09-09T08:56:19.435Z,93173.44
2017-09-09T08:58:47.779Z,93174.20
2017-09-09T09:01:16.138Z,93178.37
2017-09-09T09:03:44.476Z,93172.43
2017-09-09T09:06:12.850Z,93179.47
2017-09-09T09:08:41.199Z,93186.78
2017-09-09T09:11:09.539Z,93183.94
2017-09-09T09:13:37.878Z,93188.93
2017-09-09T09:16:07.051Z,93178.75
2017-09-09T09:18:35.491Z,93182.41
2017-09-09T09:21:03.858Z,93191.94
2017-09-09T09:23:32.197Z,93200.19
2017-09-09T09:26:00.561Z,93218.53
2017-09-09T09:28:28.942Z,93221.98
2017-09-09T09:30:57.318Z,93210.28
2017-09-09T09:33:25.787Z,93217.03
2017-09-09T09:35:54.169Z,93209.99
2017-09-09T09:38:22.503Z,93218.67
2017-09-09T09:40:50.842Z,93222.28
2017-09-09T09:43:19.199Z,93214.14
2017-09-09T09:45:47.579Z,93213.31
2017-09-09T09:48:15.915Z,93212.20
2017-09-09T09:50:44.263Z,93219.22
2017-09-09T09:53:12.610Z,93225.28
2017-09-09T09:55:40.965Z,93214.34
2017-09-09T09:58:09.343Z,93216.30
2017-09-09T10:00:37.688Z,93220.25
2017-09-09T10:03:06.044Z,93215.68
2017-09-09T10:05:34.519Z,93217.84
2017-09-09T10:08:02.882Z,93220.86
2017-09-09T10:10:31.252Z,93230.92
2017-09-09T10:12:59.627Z,93224.78
2017-09-09T10:15:27.975Z,93214.28
2017-09-09T10:17:56.355Z,93221.34
2017-09-09T10:20:24.689Z,93219.88
2017-09-09T10:22:53.573Z,93222.34
2017-09-09T10:25:27.286Z,93226.86
2017-09-09T10:27:58.431Z,93228.92
2017-09-09T10:30:27.527Z,93239.56
2017-09-09T10:32:56.449Z,93231.50
2017-09-09T10:35:25.474Z,93225.68
2017-09-09T10:37:54.648Z,93236.25
2017-09-09T10:40:23.367Z,93241.19
2017-09-09T10:42:52.925Z,93242.09
2017-09-09T10:45:21.825Z,93238.94
2017-09-09T10:47:50.310Z,93248.27
2017-09-09T10:50:18.738Z,93250.52
2017-09-09T10:52:47.117Z,93251.97
2017-09-09T10:55:15.459Z,93246.96
2017-09-09T10:57:43.795Z,93235.04
2017-09-09T11:00:12.137Z,93237.33
2017-09-09T11:02:40.492Z,93248.28
2017-09-09T11:05:08.835Z,93252.15
2017-09-09T11:07:43.171Z,93244.48
2017-09-09T11:10:11.502Z,93249.38
2017-09-09T11:12:39.847Z,93241.75
2017-09-09T11:15:08.191Z,93246.17
2017-09-09T11:17:36.579Z,93254.19
2017-09-09T11:20:04.915Z,93254.78
2017-09-09T11:22:33.251Z,93264.16
2017-09-09T11:25:01.598Z,93264.48
2017-09-09T11:27:29.934Z,93263.33
2017-09-09T11:29:58.279Z,93269.06
2017-09-09T11:32:26.633Z,93268.08
2017-09-09T11:34:54.983Z,93281.05
2017-09-09T11:37:23.311Z,93288.97
2017-09-09T11:39:51.707Z,93295.58
2017-09-09T11:42:20.042Z,93285.43
2017-09-09T11:44:48.381Z,93295.63
2017-09-09T11:47:16.734Z,93301.59
2017-09-09T11:49:45.063Z,93295.72
2017-09-09T11:52:13.439Z,93307.34
2017-09-09T11:54:41.775Z,93313.38
2017-09-09T11:57:10.314Z,93313.82
2017-09-09T11:59:38.655Z,93318.83
2017-09-09T12:02:06.999Z,93327.91
2017-09-09T12:04:35.912Z,93331.67
2017-09-09T12:07:04.243Z,93340.89
2017-09-09T12:09:32.597Z,93343.56
2017-09-09T12:12:00.941Z,93349.44
2017-09-09T12:14:29.299Z,93342.60
2017-09-09T12:16:57.663Z,93348.03
2017-09-09T12:19:26.003Z,93350.49
2017-09-09T12:21:54.356Z,93350.23
2017-09-09T12:24:22.688Z,93343.66
2017-09-09T12:26:51.022Z,93344.80
2017-09-09T12:29:19.395Z,93342.92
2017-09-09T12:31:47.736Z,93346.34
2017-09-09T12:34:16.082Z,93343.50
2017-09-09T12:36:44.458Z,93349.28
2017-09-09T12:39:12.840Z,93339.09
2017-09-09T12:41:41.192Z,93348.79
2017-09-09T12:44:09.536Z,93341.44
2017-09-09T12:46:37.928Z,93342.89
2017-09-09T12:49:06.272Z,93351.52
2017-09-09T12:51:34.614Z,93356.38
2017-09-09T12:54:03.064Z,93357.23
2017-09-09T12:56:31.408Z,93361.23
2017-09-09T12:58:59.753Z,93366.76
2017-09-09T13:01:28.098Z,93355.30
2017-09-09T13:03:56.487Z,93359.33
2017-09-09T13:08:59.405Z,93363.79
2017-09-09T13:11:27.751Z,93365.83
2017-09-09T13:13:56.150Z,93374.74
2017-09-09T13:16:24.475Z,93386.77
2017-09-09T13:18:52.822Z,93383.90
2017-09-09T13:21:21.288Z,93383.78
2017-09-09T13:23:49.631Z,93382.08
2017-09-09T13:26:17.967Z,93366.27
2017-09-09T13:28:46.306Z,93371.02
2017-09-09T13:31:14.646Z,93354.94
2017-09-09T13:33:42.998Z,93344.04
2017-09-09T13:36:11.347Z,93359.75
2017-09-09T13:38:39.693Z,93357.60
2017-09-09T13:41:08.036Z,93354.98
2017-09-09T13:43:36.402Z,93353.80
2017-09-09T13:46:04.750Z,93353.70
2017-09-09T13:48:33.084Z,93357.99
2017-09-09T13:51:01.420Z,93357.68
2017-09-09T13:53:29.766Z,93361.48
2017-09-09T13:55:58.122Z,93361.66
2017-09-09T13:58:26.470Z,93353.31
2017-09-09T14:00:54.803Z,93360.59
2017-09-09T14:03:23.152Z,93369.86
2017-09-09T14:05:51.509Z,93365.87
2017-09-09T14:08:19.871Z,93372.38
2017-09-09T14:10:48.253Z,93376.78
2017-09-09T14:13:16.618Z,93370.02
2017-09-09T14:15:44.962Z,93366.36
2017-09-09T14:18:13.300Z,93366.91
2017-09-09T14:20:41.636Z,93376.94
2017-09-09T14:23:09.973Z,93379.54
2017-09-09T14:25:38.324Z,93375.49
2017-09-09T14:28:06.679Z,93378.53
2017-09-09T14:30:35.023Z,93391.77
2017-09-09T14:33:03.607Z,93393.97
2017-09-09T14:35:31.971Z,93399.33
2017-09-09T14:38:01.192Z,93399.59
2017-09-09T14:40:29.522Z,93410.24
2017-09-09T14:42:57.870Z,93412.14
2017-09-09T14:45:26.218Z,93410.58
2017-09-09T14:47:54.644Z,93415.87
2017-09-09T14:50:22.999Z,93416.11
2017-09-09T14:52:51.347Z,93408.52
2017-09-09T14:55:19.689Z,93415.73
2017-09-09T14:57:48.132Z,93420.08
2017-09-09T15:00:16.500Z,93425.45
2017-09-09T15:02:44.844Z,93422.55
2017-09-09T15:05:13.192Z,93423.23
2017-09-09T15:07:41.540Z,93443.55
2017-09-09T15:10:09.886Z,93438.11
2017-09-09T15:12:38.241Z,93432.80
2017-09-09T15:15:06.619Z,93437.72
2017-09-09T15:17:34.962Z,93439.98
2017-09-09T15:20:03.318Z,93433.88
2017-09-09T15:22:31.655Z,93425.64
2017-09-09T15:25:00.004Z,93428.43
2017-09-09T15:27:28.522Z,93436.01
2017-09-09T15:29:56.863Z,93428.56
2017-09-09T15:32:25.245Z,93434.17
2017-09-09T15:34:53.579Z,93435.73
2017-09-09T15:37:21.945Z,93442.55
2017-09-09T15:39:50.784Z,93435.58
2017-09-09T15:42:19.119Z,93437.95
2017-09-09T15:44:47.459Z,93437.54
2017-09-09T15:47:15.815Z,93435.09
2017-09-09T15:49:44.164Z,93434.80
2017-09-09T15:52:12.519Z,93430.76
2017-09-09T15:54:40.852Z,93433.11
2017-09-09T15:57:09.207Z,93426.89
2017-09-09T15:59:37.555Z,93426.55
2017-09-09T16:02:05.891Z,93419.54
2017-09-09T16:04:34.575Z,93420.06
2017-09-09T16:07:02.916Z,93425.83
2017-09-09T16:09:31.269Z,93429.48
2017-09-09T16:11:59.609Z,93418.48
2017-09-09T16:14:27.980Z,93422.13
2017-09-09T16:16:57.069Z,93428.31
2017-09-09T16:19:26.690Z,93432.97
2017-09-09T16:21:55.039Z,93438.41
2017-09-09T16:24:23.391Z,93440.52
2017-09-09T16:26:51.735Z,93435.33
2017-09-09T16:29:20.085Z,93428.23
2017-09-09T16:31:48.567Z,93430.41
2017-09-09T16:34:16.909Z,93433.34
2017-09-09T16:36:45.254Z,93441.47
2017-09-09T16:39:13.586Z,93446.50
2017-09-09T16:41:41.959Z,93446.89
2017-09-09T16:44:10.330Z,93452.03
2017-09-09T16:46:38.668Z,93447.91
2017-09-09T16:49:07.012Z,93457.80
2017-09-09T16:51:35.364Z,93456.64
2017-09-09T16:54:03.731Z,93456.85
2017-09-09T16:56:32.087Z,93459.28
2017-09-09T16:59:00.421Z,93453.73
2017-09-09T17:01:28.758Z,93459.23
2017-09-09T17:03:57.124Z,93461.06
2017-09-09T17:06:25.496Z,93462.37
2017-09-09T17:08:53.819Z,93463.61
2017-09-09T17:11:22.168Z,93466.72
2017-09-09T17:13:50.521Z,93464.36
2017-09-09T17:16:18.864Z,93467.02
2017-09-09T17:18:47.212Z,93472.20
2017-09-09T17:21:15.554Z,93469.30
2017-09-09T17:23:43.899Z,93475.06
2017-09-09T17:26:12.239Z,93468.17
2017-09-09T17:28:40.579Z,93463.55
2017-09-09T17:31:08.917Z,93463.05
2017-09-09T17:33:37.259Z,93466.94
2017-09-09T17:36:05.594Z,93464.88
2017-09-09T17:38:33.982Z,93463.77
2017-09-09T17:41:03.001Z,93475.28
2017-09-09T17:43:31.339Z,93470.84
2017-09-09T17:45:59.683Z,93472.95
2017-09-09T17:48:28.022Z,93475.11
2017-09-09T17:50:56.361Z,93475.48
2017-09-09T17:53:24.715Z,93477.91
2017-09-09T18:40:50.828Z,93545.67
2017-09-09T18:43:19.172Z,93555.16
2017-09-09T18:45:47.651Z,93559.03
2017-09-09T18:48:15.991Z,93567.65
2017-09-09T18:50:44.333Z,93573.41
2017-09-09T19:32:11.745Z,93609.51
2017-09-09T19:34:44.088Z,93610.75
2017-09-09T19:37:12.426Z,93611.81
2017-09-09T19:39:40.781Z,93616.38
2017-09-09T19:42:09.124Z,93609.31
2017-09-09T19:44:37.487Z,93612.34
2017-09-09T19:47:05.922Z,93614.31
2017-09-09T19:49:34.305Z,93609.30
2017-09-09T19:52:02.626Z,93610.59
2017-09-09T19:54:30.976Z,93616.00
2017-09-09T19:56:59.450Z,93614.47
2017-09-09T19:59:27.800Z,93614.16
2017-09-09T20:01:56.127Z,93613.58
2017-09-09T20:04:24.481Z,93618.42
2017-09-09T20:06:52.821Z,93610.31
2017-09-09T20:09:21.189Z,93613.44
2017-09-09T20:11:49.523Z,93611.03
2017-09-09T20:14:17.936Z,93613.77
2017-09-09T20:16:46.275Z,93606.25
2017-09-09T20:19:14.616Z,93614.55
2017-09-09T20:21:42.961Z,93610.28
2017-09-09T20:24:11.313Z,93607.40
2017-09-09T20:26:39.656Z,93619.66
2017-09-09T20:29:08.132Z,93618.78
2017-09-09T20:31:36.472Z,93612.50
2017-09-09T20:34:04.819Z,93621.87
2017-09-09T20:36:33.160Z,93622.00
2017-09-09T20:39:01.516Z,93623.16
2017-09-09T20:41:29.895Z,93627.32
2017-09-09T20:43:58.497Z,93622.37
2017-09-09T20:46:26.877Z,93629.70
2017-09-09T20:48:55.217Z,93635.02
2017-09-09T20:51:23.873Z,93628.78
2017-09-09T20:53:52.235Z,93634.81
2017-09-09T20:56:20.615Z,93634.27
2017-09-09T20:58:48.965Z,93642.94
2017-09-09T21:01:17.392Z,93639.86
2017-09-09T21:03:45.747Z,93635.95
2017-09-09T21:06:14.101Z,93641.56
2017-09-09T21:08:42.452Z,93636.70
2017-09-09T21:11:11.273Z,93637.33
2017-09-09T21:13:39.621Z,93638.07
2017-09-09T21:16:07.975Z,93641.63
2017-09-09T21:18:36.338Z,93649.85
2017-09-09T21:21:04.700Z,93648.84
2017-09-09T21:23:33.086Z,93653.34
2017-09-09T21:26:01.420Z,93656.94
2017-09-09T21:28:29.763Z,93654.86
2017-09-09T21:30:58.147Z,93659.52
2017-09-09T21:33:26.502Z,93656.45
2017-09-09T21:35:54.850Z,93659.97
2017-09-09T21:38:23.196Z,93657.05
2017-09-09T21:40:51.533Z,93665.45
2017-09-09T21:43:19.890Z,93662.20
2017-09-09T21:45:48.224Z,93665.31
2017-09-09T21:48:16.599Z,93661.46
2017-09-09T21:50:44.940Z,93663.61
2017-09-09T21:53:13.317Z,93657.28
2017-09-09T21:55:41.654Z,93671.90
2017-09-09T21:58:10.028Z,93667.95
2017-09-09T22:00:38.390Z,93675.84
2017-09-09T22:03:06.739Z,93674.72
2017-09-09T22:05:35.088Z,93675.53
2017-09-09T22:08:03.430Z,93677.22
2017-09-09T22:10:31.774Z,93684.77
2017-09-09T22:13:00.147Z,93683.48
2017-09-09T22:15:28.495Z,93684.63
2017-09-09T22:17:56.844Z,93675.63
2017-09-09T22:20:25.225Z,93678.97
2017-09-09T22:22:53.555Z,93678.70
2017-09-09T22:25:21.935Z,93675.55
2017-09-09T22:27:50.321Z,93668.41
2017-09-09T22:30:18.779Z,93675.11
2017-09-09T22:32:47.120Z,93670.86
2017-09-09T22:35:15.459Z,93671.96
2017-09-09T22:37:43.814Z,93679.22
2017-09-09T22:40:12.179Z,93676.00
2017-09-09T22:42:40.514Z,93675.53
2017-09-09T22:45:08.865Z,93676.05
2017-09-09T22:47:37.220Z,93677.97
2017-09-09T22:50:05.563Z,93678.34
2017-09-09T22:52:33.921Z,93674.97
2017-09-09T22:55:02.315Z,93673.15
2017-09-09T22:57:30.663Z,93677.45
2017-09-09T22:59:59.006Z,93678.59
2017-09-09T23:02:27.359Z,93686.87
2017-09-09T23:04:55.798Z,93692.84
2017-09-09T23:07:24.166Z,93683.98
2017-09-09T23:09:53.255Z,93683.59
2017-09-09T23:12:21.618Z,93682.51
2017-09-09T23:14:49.969Z,93678.81
2017-09-09T23:17:18.312Z,93683.70
2017-09-09T23:19:46.669Z,93681.64
2017-09-09T23:22:15.063Z,93685.22
2017-09-09T23:24:43.426Z,93690.42
2017-09-09T23:27:11.786Z,93690.67
2017-09-09T23:29:40.163Z,93682.69
2017-09-09T23:32:08.534Z,93686.17
2017-09-09T23:34:36.908Z,93692.86
2017-09-09T23:37:05.278Z,93688.63
2017-09-09T23:39:33.663Z,93699.59
2017-09-09T23:42:02.042Z,93697.94
2017-09-09T23:44:30.406Z,93701.78
2017-09-09T23:46:58.783Z,93692.75
2017-09-09T23:49:27.136Z,93695.72
2017-09-09T23:51:55.475Z,93700.24
2017-09-09T23:54:23.847Z,93697.39
2017-09-09T23:56:52.192Z,93695.52
2017-09-09T23:59:20.580Z,93706.52
